createdAt,value
2019-01-06T00:01:42.446Z,98209.77
2019-01-06T00:06:54.464Z,98191.98
2019-01-06T00:11:50.705Z,98200.66
2019-01-06T00:16:55.918Z,98196.23
2019-01-06T00:22:08.486Z,98184.84
2019-01-06T00:27:20.977Z,98189.69
2019-01-06T00:32:26.248Z,98184.91
2019-01-06T00:37:25.494Z,98191.77
2019-01-06T00:42:24.404Z,98192.69
2019-01-06T00:47:36.683Z,98180.56
2019-01-06T00:52:41.727Z,98191.23
2019-01-06T00:57:37.979Z,98185.80
2019-01-06T01:02:50.191Z,98183.64
2019-01-06T01:08:02.798Z,98184.80
2019-01-06T01:13:13.817Z,98189.65
2019-01-06T01:18:18.616Z,98189.56
2019-01-06T01:23:30.797Z,98187.28
2019-01-06T01:28:43.564Z,98202.14
2019-01-06T01:33:55.047Z,98192.17
2019-01-06T01:38:54.389Z,98191.84
2019-01-06T01:43:59.133Z,98188.94
2019-01-06T01:49:11.189Z,98181.56
2019-01-06T01:54:23.728Z,98179.17
2019-01-06T01:59:37.812Z,98189.83
2019-01-06T02:04:50.021Z,98184.39
2019-01-06T02:09:52.076Z,98192.27
2019-01-06T02:14:54.498Z,98190.42
2019-01-06T02:19:56.451Z,98189.34
2019-01-06T02:24:52.717Z,98191.38
2019-01-06T02:29:48.961Z,98199.06
2019-01-06T02:35:00.450Z,98198.58
2019-01-06T02:39:59.579Z,98196.83
2019-01-06T02:44:58.409Z,98174.84
2019-01-06T02:50:09.817Z,98171.83
2019-01-06T02:55:10.562Z,98174.42
2019-01-06T03:00:17.558Z,98162.02
2019-01-06T03:05:19.360Z,98171.36
2019-01-06T03:10:24.698Z,98167.78
2019-01-06T03:15:26.506Z,98168.52
2019-01-06T03:20:25.294Z,98158.98
2019-01-06T03:25:33.722Z,98158.86
2019-01-06T03:30:40.016Z,98163.65
2019-01-06T03:35:49.560Z,98152.86
2019-01-06T03:40:48.499Z,98144.44
2019-01-06T03:45:45.682Z,98139.72
2019-01-06T03:50:57.974Z,98133.41
2019-01-06T03:55:59.689Z,98138.67
2019-01-06T04:01:04.589Z,98133.66
2019-01-06T04:06:00.860Z,98121.58
2019-01-06T04:11:15.289Z,98112.48
2019-01-06T04:16:24.795Z,98111.20
2019-01-06T04:21:27.069Z,98114.16
2019-01-06T04:26:25.698Z,98113.38
2019-01-06T04:31:24.660Z,98107.52
2019-01-06T04:36:36.695Z,98109.56
2019-01-06T04:41:35.356Z,98107.52
2019-01-06T04:46:49.771Z,98110.58
2019-01-06T04:51:48.437Z,98107.49
2019-01-06T04:56:45.647Z,98111.37
2019-01-06T05:01:59.992Z,98118.14
2019-01-06T05:06:59.047Z,98127.59
2019-01-06T05:12:11.247Z,98133.61
2019-01-06T05:17:22.418Z,98127.75
2019-01-06T05:22:18.669Z,98127.59
2019-01-06T05:27:20.997Z,98124.91
2019-01-06T05:32:32.001Z,98107.55
2019-01-06T05:37:30.885Z,98113.80
2019-01-06T05:42:45.136Z,98115.97
2019-01-06T05:47:44.355Z,98126.59
2019-01-06T05:52:40.656Z,98134.76
2019-01-06T05:57:42.623Z,98138.47
2019-01-06T06:02:39.920Z,98137.45
2019-01-06T06:07:52.454Z,98142.74
2019-01-06T06:12:54.800Z,98132.03
2019-01-06T06:18:07.271Z,98147.20
2019-01-06T06:23:18.451Z,98155.63
2019-01-06T06:28:31.122Z,98151.80
2019-01-06T06:33:35.990Z,98160.90
2019-01-06T06:38:41.142Z,98161.09
2019-01-06T06:43:42.886Z,98161.63
2019-01-06T06:48:44.891Z,98159.38
2019-01-06T06:53:57.010Z,98155.56
2019-01-06T06:58:51.368Z,98156.77
2019-01-06T07:03:47.386Z,98157.13
2019-01-06T07:08:43.727Z,98160.22
2019-01-06T07:13:51.626Z,98172.20
2019-01-06T07:18:59.823Z,98177.45
2019-01-06T07:23:56.724Z,98185.23
2019-01-06T07:29:01.446Z,98193.06
2019-01-06T07:34:01.881Z,98198.71
2019-01-06T07:39:06.872Z,98201.30
2019-01-06T07:44:15.083Z,98201.56
2019-01-06T07:49:14.932Z,98208.28
2019-01-06T07:54:09.273Z,98207.94
2019-01-06T07:59:05.531Z,98214.58
2019-01-06T08:04:07.551Z,98221.82
2019-01-06T08:09:03.799Z,98225.59
2019-01-06T08:14:00.055Z,98229.70
2019-01-06T08:19:14.269Z,98229.79
2019-01-06T08:24:19.401Z,98222.63
2019-01-06T08:29:21.742Z,98231.50
2019-01-06T08:34:34.092Z,98239.36
2019-01-06T08:39:30.332Z,98237.80
2019-01-06T08:44:42.653Z,98238.58
2019-01-06T08:49:53.630Z,98239.19
2019-01-06T08:55:05.589Z,98247.18
2019-01-06T09:00:04.510Z,98240.83
2019-01-06T09:05:03.434Z,98258.84
2019-01-06T09:09:57.806Z,98259.66
2019-01-06T09:14:52.171Z,98252.88
2019-01-06T09:20:04.650Z,98262.68
2019-01-06T09:25:17.115Z,98264.41
2019-01-06T09:30:29.626Z,98271.63
2019-01-06T09:35:42.230Z,98273.53
2019-01-06T09:40:38.526Z,98277.00
2019-01-06T09:45:40.247Z,98277.22
2019-01-06T09:50:42.370Z,98270.67
2019-01-06T09:55:38.621Z,98272.74
2019-01-06T10:00:50.531Z,98279.42
2019-01-06T10:05:52.341Z,98274.47
2019-01-06T10:11:05.077Z,98269.50
2019-01-06T10:16:17.213Z,98265.64
2019-01-06T10:21:29.652Z,98269.63
2019-01-06T10:26:37.851Z,98271.08
2019-01-06T10:31:36.760Z,98274.17
2019-01-06T10:36:39.027Z,98277.02
2019-01-06T10:41:35.289Z,98276.84
2019-01-06T10:46:34.281Z,98277.00
2019-01-06T10:51:40.210Z,98270.98
2019-01-06T10:56:48.272Z,98276.97
2019-01-06T11:02:00.778Z,98280.28
2019-01-06T11:06:57.026Z,98284.95
2019-01-06T11:11:54.342Z,98286.86
2019-01-06T11:17:08.453Z,98281.82
2019-01-06T11:22:02.829Z,98291.95
2019-01-06T11:27:17.373Z,98288.98
2019-01-06T11:32:28.762Z,98285.86
2019-01-06T11:37:25.013Z,98283.57
2019-01-06T11:42:39.080Z,98285.97
2019-01-06T11:47:51.255Z,98282.51
2019-01-06T11:53:05.766Z,98273.52
2019-01-06T11:58:17.726Z,98277.31
2019-01-06T12:03:32.266Z,98278.81
2019-01-06T12:08:28.507Z,98277.75
2019-01-06T12:13:24.748Z,98276.95
2019-01-06T12:18:37.073Z,98282.06
2019-01-06T12:23:35.721Z,98274.45
2019-01-06T12:28:35.782Z,98281.23
2019-01-06T12:33:37.559Z,98283.45
2019-01-06T12:38:39.506Z,98281.49
2019-01-06T12:43:44.732Z,98285.91
2019-01-06T12:48:43.723Z,98286.41
2019-01-06T12:53:40.538Z,98289.78
2019-01-06T12:58:55.495Z,98284.59
2019-01-06T13:03:51.717Z,98291.33
2019-01-06T13:09:04.239Z,98293.93
2019-01-06T13:14:20.235Z,98292.20
2019-01-06T13:19:16.479Z,98296.04
2019-01-06T13:24:12.735Z,98289.37
2019-01-06T13:29:17.862Z,98290.05
2019-01-06T13:34:30.188Z,98297.16
2019-01-06T13:39:29.383Z,98299.86
2019-01-06T13:44:43.696Z,98307.58
2019-01-06T13:49:56.025Z,98317.52
2019-01-06T13:55:07.956Z,98314.77
2019-01-06T14:00:04.189Z,98315.87
2019-01-06T14:05:18.501Z,98318.56
2019-01-06T14:10:30.512Z,98322.20
2019-01-06T14:15:32.451Z,98331.58
2019-01-06T14:20:28.696Z,98328.94
2019-01-06T14:25:25.502Z,98337.14
2019-01-06T14:30:21.751Z,98336.28
2019-01-06T14:35:17.990Z,98339.34
2019-01-06T14:40:16.927Z,98343.16
2019-01-06T14:45:29.279Z,98351.27
2019-01-06T14:50:41.382Z,98345.00
2019-01-06T14:55:37.680Z,98347.63
2019-01-06T15:00:32.041Z,98357.70
2019-01-06T15:05:37.430Z,98354.92
2019-01-06T15:10:36.438Z,98361.42
2019-01-06T15:15:48.884Z,98360.80
2019-01-06T15:20:48.075Z,98367.20
2019-01-06T15:25:50.099Z,98374.53
2019-01-06T15:31:04.146Z,98366.30
2019-01-06T15:36:15.270Z,98368.00
2019-01-06T15:41:18.577Z,98367.91
2019-01-06T15:46:17.766Z,98377.93
2019-01-06T15:51:14.013Z,98381.55
2019-01-06T15:56:10.239Z,98380.11
2019-01-06T16:01:12.301Z,98370.95
2019-01-06T16:06:17.430Z,98375.88
2019-01-06T16:11:34.649Z,98372.44
2019-01-06T16:16:36.333Z,98381.58
2019-01-06T16:21:50.373Z,98377.75
2019-01-06T16:26:46.616Z,98381.27
2019-01-06T16:31:42.867Z,98379.97
2019-01-06T16:36:55.352Z,98384.13
2019-01-06T16:42:01.417Z,98390.42
2019-01-06T16:47:15.329Z,98394.09
2019-01-06T16:52:12.491Z,98398.38
2019-01-06T16:57:08.752Z,98409.09
2019-01-06T17:02:04.979Z,98406.38
2019-01-06T17:07:06.938Z,98409.16
2019-01-06T17:12:19.507Z,98403.48
2019-01-06T17:17:24.456Z,98413.68
2019-01-06T17:22:23.412Z,98411.50
2019-01-06T17:27:35.703Z,98407.37
2019-01-06T17:32:48.023Z,98405.89
2019-01-06T17:37:52.844Z,98416.04
2019-01-06T17:42:58.283Z,98416.56
2019-01-06T17:48:10.502Z,98409.31
2019-01-06T17:53:04.863Z,98416.53
2019-01-06T17:58:07.148Z,98408.72
2019-01-06T18:03:12.320Z,98411.95
2019-01-06T18:08:11.294Z,98422.34
2019-01-06T18:13:20.803Z,98416.31
2019-01-06T18:18:17.058Z,98421.80
2019-01-06T18:23:29.513Z,98418.75
2019-01-06T18:28:28.334Z,98419.86
2019-01-06T18:33:36.638Z,98419.17
2019-01-06T18:38:49.056Z,98424.70
2019-01-06T18:44:01.668Z,98426.08
2019-01-06T18:49:03.835Z,98426.02
2019-01-06T18:54:18.079Z,98432.91
2019-01-06T18:59:17.287Z,98426.19
2019-01-06T19:04:29.814Z,98431.66
2019-01-06T19:09:24.189Z,98437.80
2019-01-06T19:14:20.436Z,98441.09
2019-01-06T19:19:32.502Z,98439.78
2019-01-06T19:24:43.765Z,98434.10
2019-01-06T19:29:39.992Z,98433.64
2019-01-06T19:34:54.307Z,98446.28
2019-01-06T19:40:02.661Z,98445.02
2019-01-06T19:44:58.892Z,98452.23
2019-01-06T19:50:11.017Z,98445.82
2019-01-06T19:55:10.526Z,98449.87
2019-01-06T20:00:15.758Z,98452.69
2019-01-06T20:05:11.969Z,98445.78
2019-01-06T20:10:26.302Z,98451.36
2019-01-06T20:15:34.569Z,98451.36
2019-01-06T20:20:47.092Z,98452.16
2019-01-06T20:25:53.465Z,98458.30
2019-01-06T20:30:53.679Z,98462.66
2019-01-06T20:35:58.801Z,98453.45
2019-01-06T20:40:57.696Z,98455.25
2019-01-06T20:46:12.253Z,98457.38
2019-01-06T20:51:14.365Z,98458.00
2019-01-06T20:56:26.811Z,98457.66
2019-01-06T21:01:33.119Z,98459.14
2019-01-06T21:06:29.367Z,98463.99
2019-01-06T21:11:28.725Z,98462.31
2019-01-06T21:16:41.139Z,98462.19
2019-01-06T21:21:40.097Z,98459.59
2019-01-06T21:26:34.473Z,98458.61
2019-01-06T21:31:42.303Z,98456.89
2019-01-06T21:36:54.342Z,98455.02
2019-01-06T21:42:06.510Z,98459.11
2019-01-06T21:47:12.012Z,98468.73
2019-01-06T21:52:24.478Z,98468.53
2019-01-06T21:57:26.480Z,98472.69
2019-01-06T22:02:28.682Z,98478.31
2019-01-06T22:07:24.928Z,98474.07
2019-01-06T22:12:33.143Z,98473.20
2019-01-06T22:17:47.390Z,98473.08
2019-01-06T22:22:59.775Z,98470.86
2019-01-06T22:27:58.962Z,98464.83
2019-01-06T22:33:03.891Z,98468.95
2019-01-06T22:38:00.133Z,98465.67
2019-01-06T22:43:01.829Z,98469.84
2019-01-06T22:47:58.163Z,98460.52
2019-01-06T22:53:12.418Z,98463.92
2019-01-06T22:58:24.718Z,98465.45
2019-01-06T23:03:33.035Z,98458.99
2019-01-06T23:08:35.314Z,98465.55
2019-01-06T23:13:31.534Z,98462.47
2019-01-06T23:18:27.823Z,98465.14
2019-01-06T23:23:31.177Z,98463.00
2019-01-06T23:28:39.243Z,98467.28
2019-01-06T23:33:51.628Z,98463.00
2019-01-06T23:39:03.834Z,98468.58
2019-01-06T23:44:02.521Z,98472.62
2019-01-06T23:49:04.423Z,98460.09
2019-01-06T23:54:00.674Z,98461.43
2019-01-06T23:59:02.673Z,98463.69
